Time;durP1;ratioP1;P1;durP2;ratioP2;P2;SDS_P1;SDS_P2;PMS_P1;PMS_P2;Temp;Humidity;BMP_temperature;BMP_pressure;BME280_temperature;BME280_humidity;BME280_pressure;Samples;Min_cycle;Max_cycle;Signal;HPM_P1;HPM_P2
2021/09/08 00:00:42;;;;;;;13.60;12.10;;;;;;;14.63;100.00;98519.25;5052915;28;20216;-66
2021/09/08 00:03:09;;;;;;;13.40;11.90;;;;;;;14.55;100.00;98530.50;5051151;28;20577;-66
2021/09/08 00:05:37;;;;;;;13.00;11.53;;;;;;;14.48;100.00;98517.81;5052646;28;20216;-66
2021/09/08 00:08:04;;;;;;;14.50;12.30;;;;;;;14.42;100.00;98518.28;5052981;28;20235;-66
2021/09/08 00:10:30;;;;;;;13.00;11.23;;;;;;;14.40;100.00;98528.19;5052793;28;20212;-66
2021/09/08 00:12:57;;;;;;;13.10;11.70;;;;;;;14.33;100.00;98516.34;5052747;28;20662;-66
2021/09/08 00:15:24;;;;;;;13.57;11.40;;;;;;;14.28;100.00;98518.50;5052541;28;20204;-66
2021/09/08 00:17:50;;;;;;;12.90;11.20;;;;;;;14.26;100.00;98512.47;5052739;28;20583;-66
2021/09/08 00:20:17;;;;;;;13.30;11.90;;;;;;;14.24;100.00;98506.44;5052489;28;20212;-65
2021/09/08 00:22:46;;;;;;;12.33;10.90;;;;;;;14.20;100.00;98503.19;5052558;28;20287;-66
2021/09/08 00:25:13;;;;;;;12.37;11.07;;;;;;;14.19;100.00;98505.94;5052782;28;20208;-66
2021/09/08 00:27:40;;;;;;;13.27;11.60;;;;;;;14.18;100.00;98501.56;5051189;28;20208;-66
2021/09/08 00:30:08;;;;;;;13.33;11.83;;;;;;;14.18;100.00;98498.91;5052702;28;20208;-66
2021/09/08 00:32:35;;;;;;;13.20;11.47;;;;;;;14.14;100.00;98495.66;5052585;28;20239;-66
2021/09/08 00:35:02;;;;;;;14.13;11.53;;;;;;;14.10;100.00;98498.63;5052453;28;20669;-66
2021/09/08 00:37:28;;;;;;;14.20;11.60;;;;;;;14.06;100.00;98497.19;5052671;28;20212;-66
2021/09/08 00:39:56;;;;;;;12.83;11.53;;;;;;;14.03;100.00;98492.09;5052492;28;20231;-66
2021/09/08 00:42:22;;;;;;;14.37;12.37;;;;;;;13.99;100.00;98488.84;5052722;28;20216;-66
2021/09/08 00:44:49;;;;;;;14.27;12.40;;;;;;;13.91;100.00;98490.38;5052548;28;20208;-67
2021/09/08 00:47:16;;;;;;;14.50;12.03;;;;;;;13.83;100.00;98490.16;5052478;28;20203;-66
2021/09/08 00:49:44;;;;;;;13.00;11.60;;;;;;;13.79;100.00;98486.00;5052647;28;20216;-66
2021/09/08 00:52:12;;;;;;;15.17;12.33;;;;;;;13.77;100.00;98485.28;5052650;28;20606;-66
2021/09/08 00:54:40;;;;;;;14.90;12.07;;;;;;;13.73;100.00;98481.16;5050914;28;20211;-65
2021/09/08 00:57:11;;;;;;;13.67;12.17;;;;;;;13.72;100.00;98479.47;5054684;28;20219;-66
2021/09/08 00:59:37;;;;;;;14.73;12.60;;;;;;;13.70;100.00;98478.75;5044348;28;20240;-66
2021/09/08 01:02:05;;;;;;;14.43;12.53;;;;;;;13.67;100.00;98479.84;5036147;28;20224;-66
2021/09/08 01:04:32;;;;;;;12.80;11.43;;;;;;;13.67;100.00;98478.97;5052001;28;20736;-66
2021/09/08 01:06:59;;;;;;;14.63;13.03;;;;;;;13.65;100.00;98483.56;5043027;28;20216;-65
2021/09/08 01:09:25;;;;;;;14.40;12.53;;;;;;;13.61;100.00;98484.75;5045052;28;20227;-65
2021/09/08 01:11:52;;;;;;;13.37;11.97;;;;;;;13.59;100.00;98482.25;5050714;28;20721;-66
2021/09/08 01:14:20;;;;;;;13.53;11.40;;;;;;;13.59;100.00;98478.72;5056041;28;20211;-66
2021/09/08 01:16:49;;;;;;;13.10;11.70;;;;;;;13.56;100.00;98482.47;5056009;28;20211;-66
2021/09/08 01:19:15;;;;;;;13.93;12.13;;;;;;;13.57;100.00;98488.63;5054085;28;20236;-66
2021/09/08 01:21:42;;;;;;;13.13;11.50;;;;;;;13.55;100.00;98483.41;5055555;28;20220;-66
2021/09/08 01:24:11;;;;;;;14.70;12.77;;;;;;;13.54;100.00;98472.91;5055789;28;20269;-66
2021/09/08 01:26:38;;;;;;;12.90;11.50;;;;;;;13.53;100.00;98473.88;5055378;28;20211;-66
2021/09/08 01:29:05;;;;;;;13.90;12.17;;;;;;;13.51;100.00;98473.97;5055522;28;20204;-66
2021/09/08 01:31:32;;;;;;;13.90;11.70;;;;;;;13.47;100.00;98474.34;5055385;28;20211;-66
2021/09/08 01:33:58;;;;;;;12.63;11.33;;;;;;;13.42;100.00;98474.69;5055630;28;20593;-66
2021/09/08 01:36:25;;;;;;;14.53;11.83;;;;;;;13.39;100.00;98477.56;5055552;28;20231;-65
2021/09/08 01:38:51;;;;;;;12.87;11.37;;;;;;;13.35;100.00;98469.94;5055435;28;20231;-64
2021/09/08 01:41:19;;;;;;;14.00;12.17;;;;;;;13.33;100.00;98477.19;5055530;28;20239;-66
2021/09/08 01:43:46;;;;;;;13.27;11.87;;;;;;;13.33;100.00;98471.88;5055319;28;20212;-66
2021/09/08 01:46:19;;;;;;;14.27;11.90;;;;;;;13.33;100.00;98469.22;5053775;28;20222;-66
2021/09/08 01:48:45;;;;;;;13.53;11.90;;;;;;;13.31;100.00;98463.16;5055413;28;20216;-65
2021/09/08 01:51:12;;;;;;;13.70;11.93;;;;;;;13.31;100.00;98457.84;5055001;28;20673;-66
2021/09/08 01:53:38;;;;;;;14.90;12.13;;;;;;;13.31;100.00;98457.84;5055237;28;20205;-66
2021/09/08 01:56:05;;;;;;;16.03;12.53;;;;;;;13.28;100.00;98463.41;5054948;28;20215;-66
2021/09/08 01:58:33;;;;;;;13.57;11.50;;;;;;;13.27;100.00;98448.44;5055142;28;20231;-66
2021/09/08 02:01:00;;;;;;;13.90;12.43;;;;;;;13.23;100.00;98452.28;5055209;28;20587;-66
2021/09/08 02:03:26;;;;;;;14.70;13.10;;;;;;;13.21;100.00;98454.22;5055385;28;20219;-66
2021/09/08 02:05:53;;;;;;;15.07;13.03;;;;;;;13.19;100.00;98456.13;5054759;28;20215;-65
2021/09/08 02:08:19;;;;;;;16.13;12.90;;;;;;;13.16;100.00;98454.56;5054054;28;20215;-64
2021/09/08 02:10:46;;;;;;;15.53;13.43;;;;;;;13.15;100.00;98459.97;5054599;28;20212;-65
2021/09/08 02:13:12;;;;;;;15.07;12.47;;;;;;;13.10;100.00;98448.84;5053147;28;20223;-66
2021/09/08 02:15:40;;;;;;;15.00;12.43;;;;;;;13.09;100.00;98452.47;5054934;28;20576;-66
2021/09/08 02:18:07;;;;;;;14.30;12.80;;;;;;;13.04;100.00;98449.31;5054852;28;20210;-66
2021/09/08 02:20:33;;;;;;;16.83;13.60;;;;;;;13.07;100.00;98451.75;5054750;28;20243;-66
2021/09/08 02:23:00;;;;;;;14.80;12.93;;;;;;;13.04;100.00;98449.31;5054688;28;20650;-66
2021/09/08 02:25:26;;;;;;;15.57;13.07;;;;;;;13.00;100.00;98442.53;5054296;28;20215;-66
2021/09/08 02:27:53;;;;;;;14.70;12.53;;;;;;;12.94;100.00;98450.91;5054460;28;20215;-66
2021/09/08 02:30:19;;;;;;;16.43;13.60;;;;;;;12.89;100.00;98445.13;5054575;28;20218;-65
2021/09/08 02:32:47;;;;;;;14.53;12.27;;;;;;;12.87;100.00;98439.06;5054541;28;20207;-66
2021/09/08 02:35:13;;;;;;;15.23;13.10;;;;;;;12.87;100.00;98447.00;5054148;28;20207;-66
2021/09/08 02:37:40;;;;;;;15.00;13.10;;;;;;;12.85;100.00;98438.34;5052478;28;20211;-65
2021/09/08 02:40:08;;;;;;;15.77;13.30;;;;;;;12.82;100.00;98438.53;5054210;28;20257;-66
2021/09/08 02:42:34;;;;;;;15.80;13.67;;;;;;;12.80;100.00;98430.72;5054431;28;20553;-65
2021/09/08 02:45:01;;;;;;;15.40;12.80;;;;;;;12.76;100.00;98434.53;5054394;28;20593;-66
2021/09/08 02:47:27;;;;;;;14.60;12.90;;;;;;;12.72;100.00;98437.53;5053874;28;20668;-66
2021/09/08 02:49:55;;;;;;;15.80;13.17;;;;;;;12.67;100.00;98439.66;5054207;28;20211;-65
2021/09/08 02:52:21;;;;;;;14.03;12.43;;;;;;;12.65;100.00;98436.28;5053887;28;20226;-66
2021/09/08 02:54:48;;;;;;;16.37;13.67;;;;;;;12.63;100.00;98432.88;5054179;28;20207;-66
2021/09/08 02:57:14;;;;;;;17.03;13.77;;;;;;;12.58;100.00;98435.00;5054066;28;20234;-65
2021/09/08 02:59:41;;;;;;;16.63;13.77;;;;;;;12.54;100.00;98431.75;5054020;28;20243;-66
2021/09/08 03:02:07;;;;;;;16.27;13.20;;;;;;;12.58;100.00;98429.72;5053973;28;20222;-65
2021/09/08 03:04:34;;;;;;;16.57;14.73;;;;;;;12.52;100.00;98435.47;5051852;28;20216;-65
2021/09/08 03:07:02;;;;;;;18.83;15.10;;;;;;;12.43;100.00;98428.19;5053623;28;20736;-66
2021/09/08 03:09:29;;;;;;;16.77;13.97;;;;;;;12.41;100.00;98427.47;5053970;28;20578;-66
2021/09/08 03:11:55;;;;;;;16.03;13.53;;;;;;;12.41;100.00;98422.16;5053683;28;20207;-65
2021/09/08 03:14:22;;;;;;;15.80;13.30;;;;;;;12.40;100.00;98416.00;5053653;28;20301;-65
2021/09/08 03:16:48;;;;;;;15.77;14.00;;;;;;;12.40;100.00;98420.47;5053778;28;20211;-65
2021/09/08 03:19:15;;;;;;;16.80;14.30;;;;;;;12.41;100.00;98414.19;5052628;28;20246;-65
2021/09/08 03:21:41;;;;;;;18.47;14.57;;;;;;;12.40;100.00;98416.00;5053438;28;20587;-66
2021/09/08 03:24:09;;;;;;;16.43;13.43;;;;;;;12.38;100.00;98417.91;5053593;28;20234;-65
2021/09/08 03:26:35;;;;;;;15.77;13.93;;;;;;;12.38;100.00;98417.06;5053600;28;20215;-65
2021/09/08 03:29:02;;;;;;;17.20;14.53;;;;;;;12.36;100.00;98408.38;5053130;28;20218;-65
2021/09/08 03:31:28;;;;;;;17.87;14.60;;;;;;;12.37;100.00;98410.06;5052324;28;20203;-65
2021/09/08 03:33:55;;;;;;;18.17;15.07;;;;;;;12.33;100.00;98411.22;5053353;28;20219;-65
2021/09/08 03:36:21;;;;;;;17.63;14.80;;;;;;;12.27;100.00;98403.72;5053362;28;20208;-65
2021/09/08 03:38:47;;;;;;;18.90;14.00;;;;;;;12.21;100.00;98402.38;5053268;28;20219;-65
2021/09/08 03:41:15;;;;;;;16.60;14.17;;;;;;;12.23;100.00;98407.56;5053308;28;20239;-64
2021/09/08 03:43:42;;;;;;;19.03;14.67;;;;;;;12.24;100.00;98411.91;5052917;28;20217;-65
2021/09/08 03:46:08;;;;;;;18.47;15.23;;;;;;;12.23;100.00;98404.91;5053215;28;20211;-65
2021/09/08 03:48:35;;;;;;;17.93;14.60;;;;;;;12.23;100.00;98399.63;5053176;28;20215;-65
2021/09/08 03:51:02;;;;;;;19.47;15.17;;;;;;;12.20;100.00;98399.81;5053155;28;20211;-65
2021/09/08 03:53:28;;;;;;;18.30;15.40;;;;;;;12.21;100.00;98398.88;5052775;28;20211;-65
2021/09/08 03:55:55;;;;;;;17.87;14.80;;;;;;;12.18;100.00;98393.78;5051404;28;20215;-64
2021/09/08 03:58:22;;;;;;;18.73;16.00;;;;;;;12.23;100.00;98397.78;5052971;28;20572;-66
2021/09/08 04:00:49;;;;;;;18.77;15.20;;;;;;;12.17;100.00;98397.41;5052726;28;20250;-65
2021/09/08 04:03:15;;;;;;;19.07;15.17;;;;;;;12.15;100.00;98394.00;5053069;28;20577;-66
2021/09/08 04:05:42;;;;;;;16.43;13.80;;;;;;;12.05;100.00;98387.69;5052746;28;20689;-66
2021/09/08 04:08:08;;;;;;;21.30;16.90;;;;;;;11.97;100.00;98390.00;5052833;28;20215;-65
2021/09/08 04:10:35;;;;;;;17.80;15.40;;;;;;;11.97;100.00;98392.66;5052701;28;20215;-65
2021/09/08 04:13:01;;;;;;;16.50;13.73;;;;;;;11.99;100.00;98388.13;5053015;28;20583;-66
2021/09/08 04:15:29;;;;;;;21.07;15.30;;;;;;;11.94;100.00;98384.94;5052943;28;20206;-66
2021/09/08 04:17:56;;;;;;;17.23;15.17;;;;;;;11.89;100.00;98387.06;5053016;28;20578;-66
2021/09/08 04:20:22;;;;;;;17.33;13.97;;;;;;;11.89;100.00;98392.34;5052494;28;20712;-66
2021/09/08 04:22:49;;;;;;;18.53;15.13;;;;;;;11.89;100.00;98381.75;5051241;28;20596;-65
2021/09/08 04:25:15;;;;;;;17.77;14.63;;;;;;;11.87;100.00;98376.56;5052985;28;20239;-65
2021/09/08 04:27:42;;;;;;;17.30;15.20;;;;;;;11.82;100.00;98380.50;5052635;28;20235;-65
2021/09/08 04:30:09;;;;;;;21.30;16.70;;;;;;;11.85;100.00;98383.78;5052818;28;20203;-65
2021/09/08 04:32:37;;;;;;;16.80;14.03;;;;;;;11.84;100.00;98378.59;5056209;28;20211;-65
2021/09/08 04:35:04;;;;;;;17.90;14.97;;;;;;;11.82;100.00;98383.16;5056418;28;20216;-65
2021/09/08 04:37:32;;;;;;;18.83;15.37;;;;;;;11.83;100.00;98377.75;5056864;28;20212;-65
2021/09/08 04:39:58;;;;;;;19.00;15.23;;;;;;;11.79;100.00;98378.91;5056508;28;20237;-65
2021/09/08 04:42:25;;;;;;;18.27;14.57;;;;;;;11.79;100.00;98378.09;5056649;28;20209;-65
2021/09/08 04:44:51;;;;;;;18.60;15.90;;;;;;;11.83;100.00;98382.19;5056630;28;20226;-65
2021/09/08 04:47:18;;;;;;;16.77;14.17;;;;;;;11.82;100.00;98375.22;5054989;28;20224;-65
2021/09/08 04:49:45;;;;;;;18.53;14.60;;;;;;;11.79;100.00;98386.03;5056445;28;20222;-65
2021/09/08 04:52:12;;;;;;;18.60;15.20;;;;;;;11.76;100.00;98381.78;5056535;28;20208;-66
2021/09/08 04:54:38;;;;;;;18.20;14.93;;;;;;;11.73;100.00;98381.16;5056162;28;20211;-65
2021/09/08 04:57:05;;;;;;;19.20;15.13;;;;;;;11.72;100.00;98379.44;5056101;28;20707;-65
2021/09/08 04:59:31;;;;;;;17.87;15.40;;;;;;;11.75;100.00;98380.06;5056375;28;20231;-65
2021/09/08 05:01:58;;;;;;;17.83;15.17;;;;;;;11.85;100.00;98388.22;5056321;28;20225;-65
2021/09/08 05:04:24;;;;;;;18.10;15.67;;;;;;;11.84;100.00;98383.88;5056224;28;20216;-66
2021/09/08 05:06:52;;;;;;;16.50;14.13;;;;;;;11.84;100.00;98379.44;5056237;28;20220;-65
2021/09/08 05:09:18;;;;;;;16.20;14.07;;;;;;;11.90;100.00;98383.44;5055987;28;20213;-65
2021/09/08 05:11:45;;;;;;;17.00;14.00;;;;;;;11.91;100.00;98375.41;5056004;28;20211;-66
2021/09/08 05:14:12;;;;;;;18.50;15.17;;;;;;;11.93;100.00;98378.78;5054395;28;20211;-65
2021/09/08 05:16:38;;;;;;;16.10;14.03;;;;;;;11.99;100.00;98382.81;5055777;28;20218;-65
2021/09/08 05:19:05;;;;;;;16.50;14.40;;;;;;;12.03;100.00;98381.63;5055911;28;20214;-65
2021/09/08 05:21:32;;;;;;;18.30;15.30;;;;;;;12.10;100.00;98377.59;5055674;28;20214;-65
2021/09/08 05:24:00;;;;;;;17.67;14.63;;;;;;;12.16;100.00;98377.16;5055591;28;20221;-65
2021/09/08 05:26:26;;;;;;;18.40;15.30;;;;;;;12.23;100.00;98379.25;5055555;28;20676;-65
2021/09/08 05:28:53;;;;;;;21.70;15.33;;;;;;;12.29;100.00;98375.34;5055876;28;20215;-65
2021/09/08 05:31:19;;;;;;;18.53;15.17;;;;;;;12.32;100.00;98391.00;5055690;28;20568;-65
2021/09/08 05:33:46;;;;;;;18.10;15.13;;;;;;;12.39;100.00;98381.63;5055407;28;20215;-65
2021/09/08 05:36:14;;;;;;;18.53;15.53;;;;;;;12.42;100.00;98389.38;5055531;28;20214;-65
2021/09/08 05:38:41;;;;;;;20.07;16.10;;;;;;;12.50;100.00;98384.34;5055619;28;20310;-65
2021/09/08 05:41:10;;;;;;;17.77;15.20;;;;;;;12.55;100.00;98384.88;5053481;28;20251;-65
2021/09/08 05:43:37;;;;;;;19.13;16.20;;;;;;;12.65;100.00;98380.59;5054579;28;20259;-65
2021/09/08 05:46:04;;;;;;;20.03;16.60;;;;;;;12.72;100.00;98379.19;5055379;28;20215;-65
2021/09/08 05:48:32;;;;;;;18.70;16.37;;;;;;;12.84;100.00;98381.75;5055458;28;20222;-65
2021/09/08 05:50:58;;;;;;;19.37;16.47;;;;;;;12.91;100.00;98384.81;5055336;28;20213;-65
2021/09/08 05:53:25;;;;;;;18.17;15.50;;;;;;;13.04;100.00;98380.31;5055217;28;20212;-65
2021/09/08 05:55:53;;;;;;;19.90;15.80;;;;;;;13.14;100.00;98382.16;5055239;28;20211;-65
2021/09/08 05:58:21;;;;;;;17.97;15.73;;;;;;;13.25;100.00;98382.19;5054864;28;20216;-65
2021/09/08 06:00:48;;;;;;;18.30;14.87;;;;;;;13.33;100.00;98382.44;5055012;28;20243;-65
2021/09/08 06:03:14;;;;;;;17.97;15.03;;;;;;;13.42;100.00;98386.22;5054773;28;20222;-65
2021/09/08 06:05:41;;;;;;;18.70;15.43;;;;;;;13.50;100.00;98386.50;5053443;28;20216;-65
2021/09/08 06:08:07;;;;;;;18.70;15.57;;;;;;;13.61;100.00;98387.34;5054850;28;20218;-65
2021/09/08 06:10:34;;;;;;;18.47;15.40;;;;;;;13.67;100.00;98388.66;5054829;28;20221;-65
2021/09/08 06:13:00;;;;;;;17.97;15.23;;;;;;;13.76;100.00;98380.00;5054668;28;20699;-64
2021/09/08 06:15:28;;;;;;;17.90;14.37;;;;;;;13.89;100.00;98381.59;5054924;28;20211;-65
2021/09/08 06:17:54;;;;;;;17.30;14.70;;;;;;;13.96;100.00;98379.28;5054951;28;20216;-65
2021/09/08 06:20:21;;;;;;;17.87;14.37;;;;;;;13.99;100.00;98384.38;5054818;28;20232;-65
2021/09/08 06:22:47;;;;;;;16.63;14.27;;;;;;;14.07;100.00;98379.28;5054794;28;20216;-64
2021/09/08 06:25:14;;;;;;;16.77;13.73;;;;;;;14.17;100.00;98382.91;5054363;28;20212;-65
2021/09/08 06:27:40;;;;;;;15.93;13.77;;;;;;;14.23;100.00;98382.47;5054801;28;20571;-64
2021/09/08 06:30:08;;;;;;;16.17;13.97;;;;;;;14.30;100.00;98386.31;5054419;28;20210;-65
2021/09/08 06:32:35;;;;;;;15.20;12.93;;;;;;;14.39;100.00;98386.41;5052877;28;20216;-65
2021/09/08 06:35:02;;;;;;;15.43;13.83;;;;;;;14.46;100.00;98384.09;5054241;28;20213;-65
2021/09/08 06:37:29;;;;;;;14.57;12.97;;;;;;;14.48;100.00;98388.31;5054546;28;20215;-65
2021/09/08 06:39:56;;;;;;;14.97;13.13;;;;;;;14.57;100.00;98382.28;5053762;28;20235;-65
2021/09/08 06:42:22;;;;;;;15.63;13.87;;;;;;;14.70;100.00;98384.75;5054277;28;20216;-65
2021/09/08 06:44:52;;;;;;;17.03;13.23;;;;;;;14.73;100.00;98379.22;5054230;28;20235;-65
2021/09/08 06:47:19;;;;;;;18.57;14.20;;;;;;;14.80;100.00;98391.03;5054167;28;20219;-65
2021/09/08 06:49:47;;;;;;;19.43;13.73;;;;;;;14.88;100.00;98384.09;5054184;28;20568;-65
2021/09/08 06:52:13;;;;;;;16.37;13.60;;;;;;;14.97;100.00;98371.88;5053807;28;20693;-65
2021/09/08 06:54:39;;;;;;;16.20;13.73;;;;;;;15.07;100.00;98372.75;5053972;28;20216;-65
2021/09/08 06:57:06;;;;;;;15.50;13.77;;;;;;;15.19;100.00;98371.75;5053158;28;20677;-65
2021/09/08 06:59:33;;;;;;;15.83;13.87;;;;;;;15.28;100.00;98371.00;5053126;28;20220;-66
2021/09/08 07:01:59;;;;;;;15.13;12.53;;;;;;;15.42;100.00;98368.88;5053647;28;20234;-65
2021/09/08 07:04:26;;;;;;;14.10;12.20;;;;;;;15.58;100.00;98363.91;5053623;28;20754;-66
2021/09/08 07:06:54;;;;;;;17.17;12.07;;;;;;;15.72;100.00;98366.25;5054002;28;20250;-66
2021/09/08 07:09:21;;;;;;;12.87;11.30;;;;;;;15.88;100.00;98360.44;5053642;28;20212;-65
2021/09/08 07:11:47;;;;;;;14.30;12.20;;;;;;;16.00;100.00;98356.72;5053889;28;20222;-65
2021/09/08 07:14:14;;;;;;;13.13;11.27;;;;;;;16.11;100.00;98357.44;5053548;28;20223;-65
2021/09/08 07:16:40;;;;;;;13.20;11.33;;;;;;;16.20;98.29;98345.97;5053636;28;20215;-65
2021/09/08 07:19:06;;;;;;;12.40;11.17;;;;;;;16.28;97.60;98346.97;5053622;28;20212;-64
2021/09/08 07:21:33;;;;;;;12.63;10.93;;;;;;;16.40;96.14;98343.25;5053217;28;20232;-64
2021/09/08 07:24:01;;;;;;;12.50;11.17;;;;;;;16.55;96.01;98341.91;5051879;28;20208;-65
2021/09/08 07:26:32;;;;;;;14.20;11.70;;;;;;;16.72;95.50;98343.88;5053252;28;20215;-66
2021/09/08 07:28:59;;;;;;;12.77;11.33;;;;;;;16.82;95.08;98342.06;5053595;28;20222;-66
2021/09/08 07:31:26;;;;;;;12.63;10.87;;;;;;;16.96;93.44;98346.97;5053489;28;20204;-66
2021/09/08 07:33:52;;;;;;;12.93;11.63;;;;;;;16.99;93.91;98353.84;5053599;28;20204;-66
2021/09/08 07:36:19;;;;;;;13.20;11.70;;;;;;;17.07;94.04;98344.16;5053523;28;20212;-66
2021/09/08 07:38:46;;;;;;;13.90;11.53;;;;;;;17.23;91.34;98343.59;5053429;28;20208;-66
2021/09/08 07:41:14;;;;;;;14.77;11.87;;;;;;;17.41;89.16;98344.59;5053086;28;20270;-65
2021/09/08 07:43:40;;;;;;;13.10;11.23;;;;;;;17.53;87.78;98351.47;5052960;28;20686;-66
2021/09/08 07:46:07;;;;;;;13.07;11.03;;;;;;;17.54;89.08;98347.78;5053352;28;20212;-65
2021/09/08 07:48:33;;;;;;;14.23;12.03;;;;;;;17.63;89.24;98342.41;5053374;28;20223;-65
2021/09/08 07:51:00;;;;;;;12.93;11.50;;;;;;;17.64;88.94;98344.13;5051405;28;20211;-64
2021/09/08 07:53:26;;;;;;;13.77;10.77;;;;;;;17.71;88.61;98347.91;5053242;28;20235;-65
2021/09/08 07:55:53;;;;;;;12.67;10.80;;;;;;;17.80;87.11;98347.03;5052883;28;20696;-65
2021/09/08 07:58:21;;;;;;;11.63;9.77;;;;;;;17.88;86.51;98347.16;5053220;28;20581;-65
2021/09/08 08:00:47;;;;;;;13.30;10.13;;;;;;;17.99;85.68;98349.63;5052786;28;20601;-65
2021/09/08 08:03:13;;;;;;;12.57;10.90;;;;;;;18.07;83.45;98352.44;5052954;28;20212;-65
2021/09/08 08:05:40;;;;;;;12.33;10.63;;;;;;;18.24;84.08;98348.94;5052479;28;20212;-65
2021/09/08 08:08:06;;;;;;;12.53;9.97;;;;;;;18.38;83.43;98353.88;5052661;28;20219;-65
2021/09/08 08:10:33;;;;;;;11.23;9.53;;;;;;;18.51;80.57;98350.81;5053069;28;20212;-65
2021/09/08 08:13:00;;;;;;;11.70;10.10;;;;;;;18.58;79.42;98342.03;5052721;28;20301;-65
2021/09/08 08:15:28;;;;;;;10.57;9.47;;;;;;;18.69;77.85;98339.16;5050969;28;20215;-65
2021/09/08 08:17:54;;;;;;;12.07;9.70;;;;;;;18.80;77.71;98335.41;5053013;28;20211;-66
2021/09/08 08:20:21;;;;;;;12.37;10.80;;;;;;;18.99;77.76;98336.13;5052640;28;20232;-66
2021/09/08 08:22:49;;;;;;;14.10;10.63;;;;;;;19.04;77.26;98328.47;5052797;28;20212;-66
2021/09/08 08:25:18;;;;;;;13.13;10.63;;;;;;;19.22;76.18;98326.66;5052888;28;20244;-66
2021/09/08 08:27:45;;;;;;;10.47;9.03;;;;;;;19.28;74.99;98330.53;5052788;28;20212;-66
2021/09/08 08:30:13;;;;;;;12.50;10.37;;;;;;;19.41;75.40;98322.94;5052810;28;20580;-66
2021/09/08 08:32:41;;;;;;;13.27;10.27;;;;;;;19.49;75.43;98323.81;5052452;28;20219;-66
2021/09/08 08:35:09;;;;;;;12.07;9.67;;;;;;;19.54;75.19;98332.25;5052468;28;20212;-66
2021/09/08 08:37:36;;;;;;;11.60;10.30;;;;;;;19.63;74.83;98328.59;5052401;28;20212;-66
2021/09/08 08:40:04;;;;;;;14.20;10.60;;;;;;;19.77;75.42;98322.69;5052478;28;20580;-66
2021/09/08 08:42:31;;;;;;;10.93;9.47;;;;;;;19.84;74.87;98323.72;5050918;28;20238;-67
2021/09/08 08:44:59;;;;;;;11.83;9.17;;;;;;;19.98;75.15;98324.97;5052592;28;20212;-67
2021/09/08 08:47:26;;;;;;;10.63;9.23;;;;;;;20.12;73.93;98327.91;5052583;28;20556;-65
2021/09/08 08:49:54;;;;;;;10.63;9.30;;;;;;;20.18;74.09;98321.91;5052593;28;20586;-67
2021/09/08 08:52:21;;;;;;;9.73;8.73;;;;;;;20.25;75.61;98319.44;5052523;28;20216;-66
2021/09/08 08:54:48;;;;;;;10.57;9.03;;;;;;;20.40;73.83;98310.59;5052595;28;20208;-67
2021/09/08 08:57:16;;;;;;;10.10;9.10;;;;;;;20.60;74.00;98309.31;5052281;28;20678;-67
2021/09/08 08:59:44;;;;;;;10.93;8.57;;;;;;;20.75;72.65;98304.13;5052921;28;20222;-67
2021/09/08 09:02:20;;;;;;;9.60;8.60;;;;;;;20.86;71.61;98304.66;5052523;28;20606;-66
2021/09/08 09:04:48;;;;;;;8.70;7.60;;;;;;;21.00;71.59;98304.06;5052514;28;20212;-66
2021/09/08 09:07:27;;;;;;;10.93;7.93;;;;;;;21.12;68.59;98302.72;5051182;28;20219;-66
2021/09/08 09:09:55;;;;;;;8.37;7.47;;;;;;;21.30;67.81;98295.31;5052524;28;20237;-67
2021/09/08 09:12:26;;;;;;;7.97;7.17;;;;;;;21.39;66.96;98288.91;5052432;28;20215;-67
2021/09/08 09:14:58;;;;;;;9.17;6.47;;;;;;;21.52;65.97;98289.22;5052440;28;20212;-66
2021/09/08 09:17:27;;;;;;;7.87;7.07;;;;;;;21.70;65.93;98292.59;5052130;28;20208;-66
2021/09/08 09:19:54;;;;;;;9.47;7.00;;;;;;;21.77;66.24;98290.06;5055925;28;20216;-65
2021/09/08 09:22:25;;;;;;;8.13;6.90;;;;;;;21.84;63.24;98289.22;5055853;28;20250;-65
2021/09/08 09:24:53;;;;;;;8.00;6.87;;;;;;;21.96;63.60;98285.16;5055619;28;20208;-65
2021/09/08 09:27:20;;;;;;;7.57;6.63;;;;;;;22.00;62.36;98281.06;5055834;28;20215;-65
2021/09/08 09:29:47;;;;;;;10.37;6.80;;;;;;;21.98;63.11;98277.72;5055751;28;20203;-65
2021/09/08 09:32:14;;;;;;;8.37;7.33;;;;;;;22.09;63.53;98271.97;5055784;28;20250;-66
2021/09/08 09:34:42;;;;;;;7.57;6.60;;;;;;;22.07;62.19;98273.97;5053601;28;20205;-66
2021/09/08 09:37:09;;;;;;;7.57;6.77;;;;;;;22.15;62.88;98273.97;5055229;28;20295;-66
2021/09/08 09:39:38;;;;;;;7.27;6.57;;;;;;;22.32;62.03;98274.72;5055543;28;20215;-66
2021/09/08 09:42:09;;;;;;;7.53;6.73;;;;;;;22.44;62.00;98270.66;5055574;28;20240;-66
2021/09/08 09:44:36;;;;;;;7.63;6.87;;;;;;;22.48;62.59;98267.44;5055234;28;20219;-66
2021/09/08 09:47:04;;;;;;;8.53;6.80;;;;;;;22.55;60.78;98260.31;5055495;28;20204;-66
2021/09/08 09:49:32;;;;;;;7.23;6.53;;;;;;;22.70;61.40;98263.94;5055158;28;20214;-66
2021/09/08 09:51:59;;;;;;;8.17;7.37;;;;;;;22.76;60.06;98260.53;5055131;28;20259;-66
2021/09/08 09:54:26;;;;;;;10.00;7.27;;;;;;;22.86;60.65;98261.13;5055064;28;20216;-67
2021/09/08 09:56:53;;;;;;;8.37;7.20;;;;;;;22.92;59.55;98255.00;5055242;28;20212;-66
2021/09/08 09:59:21;;;;;;;8.27;6.70;;;;;;;22.89;60.57;98249.13;5053495;28;20215;-66
2021/09/08 10:01:48;;;;;;;8.10;6.80;;;;;;;22.95;61.07;98254.66;5054734;28;20774;-66
2021/09/08 10:04:16;;;;;;;7.60;6.83;;;;;;;23.08;60.07;98252.19;5054835;28;20212;-67
2021/09/08 10:06:43;;;;;;;7.50;6.70;;;;;;;23.15;60.33;98236.97;5055228;28;20208;-66
2021/09/08 10:09:14;;;;;;;8.87;7.10;;;;;;;23.21;58.88;98233.56;5054866;28;20709;-66
2021/09/08 10:11:45;;;;;;;7.60;6.90;;;;;;;23.24;56.96;98225.13;5054953;28;20211;-66
2021/09/08 10:14:14;;;;;;;8.27;6.87;;;;;;;23.29;58.16;98233.47;5054727;28;20235;-66
2021/09/08 10:16:46;;;;;;;7.70;7.00;;;;;;;23.35;58.45;98227.34;5054516;28;20215;-66
2021/09/08 10:19:12;;;;;;;8.30;6.93;;;;;;;23.27;57.42;98227.44;5054858;28;20207;-66
2021/09/08 10:21:44;;;;;;;8.40;7.30;;;;;;;23.29;58.67;98220.00;5054362;28;20235;-66
2021/09/08 10:24:12;;;;;;;7.57;6.67;;;;;;;23.35;58.08;98218.44;5054738;28;20212;-65
2021/09/08 10:26:38;;;;;;;7.37;6.67;;;;;;;23.44;58.13;98218.19;5052640;28;20219;-66
2021/09/08 10:29:07;;;;;;;7.30;6.60;;;;;;;23.57;58.75;98202.19;5054134;28;20230;-66
2021/09/08 10:31:35;;;;;;;8.33;6.73;;;;;;;23.57;57.71;98212.97;5054487;28;20242;-66
2021/09/08 10:34:05;;;;;;;7.33;6.63;;;;;;;23.58;57.81;98203.84;5054331;28;20219;-66
2021/09/08 10:36:34;;;;;;;8.07;7.03;;;;;;;23.64;57.54;98191.50;5054362;28;20216;-66
2021/09/08 10:39:07;;;;;;;7.20;6.50;;;;;;;23.70;56.80;98191.56;5054655;28;20212;-66
2021/09/08 10:41:39;;;;;;;7.10;6.40;;;;;;;23.80;56.74;98180.50;5054091;28;20248;-66
2021/09/08 10:44:06;;;;;;;7.83;6.60;;;;;;;23.87;56.48;98176.00;5054367;28;20219;-66
2021/09/08 10:46:49;;;;;;;7.90;6.87;;;;;;;23.94;54.75;98185.91;5054073;28;20216;-66
2021/09/08 10:49:47;;;;;;;8.43;6.07;;;;;;;23.99;55.15;98177.25;5054304;28;20211;-67
2021/09/08 10:52:15;;;;;;;6.93;6.13;;;;;;;24.09;54.09;98170.50;5052550;28;20216;-66
2021/09/08 10:55:14;;;;;;;7.10;6.40;;;;;;;24.14;54.50;98176.19;5054192;28;20302;-66
2021/09/08 10:57:59;;;;;;;7.10;6.40;;;;;;;24.16;53.88;98166.06;5053973;28;20215;-66
2021/09/08 11:00:37;;;;;;;7.03;6.33;;;;;;;24.21;53.86;98163.59;5053754;28;20215;-66
2021/09/08 11:03:06;;;;;;;7.93;6.30;;;;;;;24.25;53.80;98166.78;5053680;28;20243;-66
2021/09/08 11:05:46;;;;;;;6.77;6.07;;;;;;;24.29;52.82;98163.50;5053962;28;20208;-66
2021/09/08 11:08:20;;;;;;;8.77;6.57;;;;;;;24.31;53.38;98164.13;5053857;28;20579;-66
2021/09/08 11:10:46;;;;;;;6.63;6.03;;;;;;;24.34;54.26;98158.38;5053831;28;20211;-65
2021/09/08 11:13:13;;;;;;;7.43;6.57;;;;;;;24.42;53.60;98160.06;5053777;28;20216;-65
2021/09/08 11:15:40;;;;;;;7.23;6.27;;;;;;;24.49;53.20;98156.44;5053825;28;20227;-65